Time;durP1;ratioP1;P1;durP2;ratioP2;P2;SDS_P1;SDS_P2;PMS_P1;PMS_P2;Temp;Humidity;BMP_temperature;BMP_pressure;BME280_temperature;BME280_humidity;BME280_pressure;Samples;Min_cycle;Max_cycle;Signal;HPM_P1;HPM_P2
2021/03/06 00:00:05;;;;;;;;;;;5.80;99.90;;;;;;5082715;28;19904;-85
2021/03/06 00:02:31;;;;;;;;;;;5.60;99.90;;;;;;5081190;28;19913;-85
2021/03/06 00:04:56;;;;;;;;;;;5.70;99.90;;;;;;5090478;28;20387;-84
2021/03/06 00:07:22;;;;;;;;;;;5.70;99.90;;;;;;5091199;28;19969;-85
2021/03/06 00:09:48;;;;;;;;;;;5.50;99.90;;;;;;5079978;28;20058;-85
2021/03/06 00:12:13;;;;;;;;;;;5.40;99.90;;;;;;5082479;28;19919;-85
2021/03/06 00:14:39;;;;;;;;;;;5.60;99.90;;;;;;5076567;28;19911;-85
2021/03/06 00:17:04;;;;;;;;;;;5.50;99.90;;;;;;5080858;28;19916;-85
2021/03/06 00:19:30;;;;;;;;;;;5.40;99.90;;;;;;5077707;28;19914;-85
2021/03/06 00:21:57;;;;;;;;;;;5.40;99.90;;;;;;5084878;28;19908;-85
2021/03/06 00:24:23;;;;;;;;;;;5.40;99.90;;;;;;5079277;28;19909;-84
2021/03/06 00:26:49;;;;;;;;;;;5.40;99.90;;;;;;5090701;28;20314;-85
2021/03/06 00:29:17;;;;;;;;;;;5.40;99.90;;;;;;5087442;28;19912;-85
2021/03/06 00:31:43;;;;;;;;;;;5.70;99.90;;;;;;5091287;28;20280;-85
2021/03/06 00:34:08;;;;;;;;;;;5.70;99.90;;;;;;5089149;28;19953;-85
2021/03/06 00:36:34;;;;;;;;;;;5.70;99.90;;;;;;5076307;28;19999;-85
2021/03/06 00:39:00;;;;;;;;;;;5.50;99.90;;;;;;5084461;28;20419;-85
2021/03/06 00:41:26;;;;;;;;;;;5.60;99.90;;;;;;5082111;28;19950;-85
2021/03/06 00:43:51;;;;;;;;;;;5.50;99.90;;;;;;5079475;28;20375;-85
2021/03/06 00:46:17;;;;;;;;;;;5.40;99.90;;;;;;5088772;28;20007;-85
2021/03/06 00:48:43;;;;;;;;;;;5.30;99.90;;;;;;5075418;28;19904;-85
2021/03/06 00:51:09;;;;;;;;;;;5.40;99.90;;;;;;5086577;28;19954;-85
2021/03/06 00:53:36;;;;;;;;;;;5.40;99.90;;;;;;5084002;28;19909;-85
2021/03/06 00:56:02;;;;;;;;;;;5.20;99.90;;;;;;5084998;28;20002;-85
2021/03/06 00:58:28;;;;;;;;;;;5.20;99.90;;;;;;5092439;28;19915;-85
2021/03/06 01:00:54;;;;;;;;;;;5.30;99.90;;;;;;5074510;28;19908;-85
2021/03/06 01:03:20;;;;;;;;;;;5.20;99.90;;;;;;5087656;28;20601;-86
2021/03/06 01:05:45;;;;;;;;;;;5.10;99.90;;;;;;5089063;28;19912;-85
2021/03/06 01:08:11;;;;;;;;;;;5.20;99.90;;;;;;5076088;28;20012;-85
2021/03/06 01:10:39;;;;;;;;;;;5.20;99.90;;;;;;5083463;28;19904;-85
2021/03/06 01:13:05;;;;;;;;;;;5.10;99.90;;;;;;5086473;28;19923;-85
2021/03/06 01:15:31;;;;;;;;;;;5.20;99.90;;;;;;5091333;28;20447;-85
2021/03/06 01:17:56;;;;;;;;;;;5.10;99.90;;;;;;5090773;28;19904;-85
2021/03/06 01:20:22;;;;;;;;;;;4.90;99.90;;;;;;5080244;28;20458;-85
2021/03/06 01:22:49;;;;;;;;;;;5.00;99.90;;;;;;5089133;28;19912;-85
2021/03/06 01:25:16;;;;;;;;;;;5.10;99.90;;;;;;5091423;28;20387;-86
2021/03/06 01:27:41;;;;;;;;;;;4.90;99.90;;;;;;5091863;28;19999;-86
2021/03/06 01:30:07;;;;;;;;;;;4.90;99.90;;;;;;5082117;28;20007;-85
2021/03/06 01:32:33;;;;;;;;;;;5.00;99.90;;;;;;5077936;28;19912;-85
2021/03/06 01:34:59;;;;;;;;;;;5.00;99.90;;;;;;5078544;28;20711;-85
2021/03/06 01:37:25;;;;;;;;;;;5.00;99.90;;;;;;5084980;28;19951;-85
2021/03/06 01:39:50;;;;;;;;;;;4.90;99.90;;;;;;5087536;28;19945;-85
2021/03/06 01:42:17;;;;;;;;;;;4.90;99.90;;;;;;5089910;28;19912;-86
2021/03/06 01:44:43;;;;;;;;;;;5.00;99.90;;;;;;5090712;28;19908;-86
2021/03/06 01:47:08;;;;;;;;;;;4.80;99.90;;;;;;5085712;28;19911;-86
2021/03/06 01:49:34;;;;;;;;;;;4.90;99.90;;;;;;5083410;28;20349;-86
2021/03/06 01:51:59;;;;;;;;;;;4.80;99.90;;;;;;5082983;28;20542;-86
2021/03/06 01:54:27;;;;;;;;;;;4.80;99.90;;;;;;5082420;28;19908;-86
2021/03/06 01:56:53;;;;;;;;;;;5.00;99.90;;;;;;5084872;28;19912;-86
2021/03/06 01:59:19;;;;;;;;;;;4.70;99.90;;;;;;5084233;28;20336;-86
2021/03/06 02:01:53;;;;;;;;;;;4.90;99.90;;;;;;5082011;28;19995;-85
2021/03/06 02:04:19;;;;;;;;;;;5.00;99.90;;;;;;5085262;28;20391;-86
2021/03/06 02:06:45;;;;;;;;;;;4.90;99.90;;;;;;5085405;28;19939;-86
2021/03/06 02:09:10;;;;;;;;;;;4.90;99.90;;;;;;5080284;28;19957;-86
2021/03/06 02:12:10;;;;;;;;;;;4.90;99.90;;;;;;5084790;28;19908;-86
2021/03/06 02:14:45;;;;;;;;;;;4.90;99.90;;;;;;5087351;28;19911;-86
2021/03/06 02:17:13;;;;;;;;;;;5.00;99.90;;;;;;5073525;28;19909;-85
2021/03/06 02:19:39;;;;;;;;;;;4.90;99.90;;;;;;5082109;28;19967;-85
2021/03/06 02:22:23;;;;;;;;;;;5.00;99.90;;;;;;5081349;28;19908;-85
2021/03/06 02:25:02;;;;;;;;;;;4.90;99.90;;;;;;5082264;28;19916;-85
2021/03/06 02:27:46;;;;;;;;;;;4.90;99.90;;;;;;5088854;28;19933;-85
2021/03/06 02:30:13;;;;;;;;;;;4.80;99.90;;;;;;5082636;28;19908;-85
2021/03/06 02:32:43;;;;;;;;;;;4.80;99.90;;;;;;5075847;28;20386;-85
2021/03/06 02:35:09;;;;;;;;;;;4.80;99.90;;;;;;5080722;28;19961;-85
2021/03/06 02:37:36;;;;;;;;;;;4.70;99.90;;;;;;5084484;28;19916;-84
2021/03/06 02:40:02;;;;;;;;;;;4.70;99.90;;;;;;5082234;28;19908;-85
2021/03/06 02:42:29;;;;;;;;;;;4.70;99.90;;;;;;5084809;28;19995;-85
2021/03/06 02:44:56;;;;;;;;;;;4.70;99.90;;;;;;5089138;28;19915;-85
2021/03/06 02:47:22;;;;;;;;;;;4.60;99.90;;;;;;5084220;28;19908;-86
2021/03/06 02:49:54;;;;;;;;;;;4.70;99.90;;;;;;5088516;28;19908;-85
2021/03/06 02:52:20;;;;;;;;;;;4.70;99.90;;;;;;5082993;28;19910;-85
2021/03/06 02:54:47;;;;;;;;;;;4.60;99.90;;;;;;5090667;28;20033;-85
2021/03/06 02:57:32;;;;;;;;;;;4.70;99.90;;;;;;5090896;28;20437;-85
2021/03/06 03:00:02;;;;;;;;;;;4.60;99.90;;;;;;5091570;28;19927;-85
2021/03/06 03:02:35;;;;;;;;;;;4.50;99.90;;;;;;5085599;28;19904;-86
2021/03/06 03:05:24;;;;;;;;;;;4.60;99.90;;;;;;5080628;28;19912;-86
2021/03/06 03:07:58;;;;;;;;;;;4.50;99.90;;;;;;5087143;28;19904;-86
2021/03/06 03:10:24;;;;;;;;;;;4.60;99.90;;;;;;5082237;28;19969;-86
2021/03/06 03:12:55;;;;;;;;;;;4.50;99.90;;;;;;5088204;28;19998;-86
2021/03/06 03:15:36;;;;;;;;;;;4.50;99.90;;;;;;5089671;28;19908;-86
2021/03/06 03:18:02;;;;;;;;;;;4.60;99.90;;;;;;5083986;28;19909;-86
2021/03/06 03:20:44;;;;;;;;;;;4.60;99.90;;;;;;5082879;28;19915;-86
2021/03/06 03:23:18;;;;;;;;;;;4.60;99.90;;;;;;5086125;28;19915;-85
2021/03/06 03:25:45;;;;;;;;;;;4.60;99.90;;;;;;5080778;28;19904;-86
2021/03/06 03:28:11;;;;;;;;;;;4.50;99.90;;;;;;5092924;28;20002;-86
2021/03/06 03:30:38;;;;;;;;;;;4.50;99.90;;;;;;5092035;28;19919;-86
2021/03/06 03:33:11;;;;;;;;;;;4.60;99.90;;;;;;5091490;28;19957;-85
2021/03/06 03:35:39;;;;;;;;;;;4.70;99.90;;;;;;5092085;28;19988;-86
2021/03/06 03:38:05;;;;;;;;;;;4.60;99.90;;;;;;5082132;28;19953;-86
2021/03/06 03:40:32;;;;;;;;;;;4.60;99.90;;;;;;5078629;28;20383;-85
2021/03/06 03:42:58;;;;;;;;;;;4.70;99.90;;;;;;5091136;28;19918;-84
2021/03/06 03:45:25;;;;;;;;;;;4.70;99.90;;;;;;5076989;28;20283;-84
2021/03/06 03:47:50;;;;;;;;;;;4.80;99.90;;;;;;5087164;28;19953;-84
2021/03/06 03:50:16;;;;;;;;;;;4.80;99.90;;;;;;5073707;28;20003;-84
2021/03/06 03:52:43;;;;;;;;;;;4.70;99.90;;;;;;5084423;28;20287;-84
2021/03/06 03:55:09;;;;;;;;;;;4.70;99.90;;;;;;5077734;28;19969;-85
2021/03/06 03:57:35;;;;;;;;;;;4.80;99.90;;;;;;5084825;28;19973;-85
2021/03/06 04:00:05;;;;;;;;;;;4.70;99.90;;;;;;5088588;28;19912;-85
2021/03/06 04:02:31;;;;;;;;;;;4.80;99.90;;;;;;5086952;28;19961;-85
2021/03/06 04:04:56;;;;;;;;;;;4.70;99.90;;;;;;5088234;28;19912;-85
2021/03/06 04:07:22;;;;;;;;;;;4.80;99.90;;;;;;5081145;28;19944;-86
2021/03/06 04:09:48;;;;;;;;;;;4.70;99.90;;;;;;5078217;28;20529;-86
2021/03/06 04:12:13;;;;;;;;;;;4.60;99.90;;;;;;5089226;28;20279;-85
2021/03/06 04:14:39;;;;;;;;;;;4.80;99.90;;;;;;5091246;28;20294;-85
2021/03/06 04:17:05;;;;;;;;;;;4.70;99.90;;;;;;5090100;28;19916;-86
2021/03/06 04:19:30;;;;;;;;;;;4.60;99.90;;;;;;5091104;28;19904;-85
2021/03/06 04:21:57;;;;;;;;;;;4.70;99.90;;;;;;5088735;28;19908;-86
2021/03/06 04:24:23;;;;;;;;;;;4.60;99.90;;;;;;5078780;28;19908;-87
2021/03/06 04:26:52;;;;;;;;;;;4.60;99.90;;;;;;5083903;28;20419;-87
2021/03/06 04:29:19;;;;;;;;;;;4.60;99.90;;;;;;5086462;28;19953;-86
2021/03/06 04:31:45;;;;;;;;;;;4.60;99.90;;;;;;5091084;28;19995;-86
2021/03/06 04:34:11;;;;;;;;;;;4.60;99.90;;;;;;5082566;28;19998;-86
2021/03/06 04:36:36;;;;;;;;;;;4.60;99.90;;;;;;5092020;28;19919;-86
2021/03/06 04:39:03;;;;;;;;;;;4.60;99.90;;;;;;5087111;28;19915;-86
2021/03/06 04:41:28;;;;;;;;;;;4.60;99.90;;;;;;5091114;28;19915;-86
2021/03/06 04:43:54;;;;;;;;;;;4.60;99.90;;;;;;5086669;28;20352;-86
2021/03/06 04:46:21;;;;;;;;;;;4.50;99.90;;;;;;5082758;28;19904;-86
2021/03/06 04:48:46;;;;;;;;;;;4.60;99.90;;;;;;5091442;28;20387;-86
2021/03/06 04:51:13;;;;;;;;;;;4.50;99.90;;;;;;5081657;28;19913;-86
2021/03/06 04:53:39;;;;;;;;;;;4.50;99.90;;;;;;5079542;28;19966;-86
2021/03/06 04:56:05;;;;;;;;;;;4.40;99.90;;;;;;5077832;28;19912;-86
2021/03/06 04:58:30;;;;;;;;;;;4.40;99.90;;;;;;5080980;28;19912;-85
2021/03/06 05:00:56;;;;;;;;;;;4.40;99.90;;;;;;5083607;28;19916;-86
2021/03/06 05:03:22;;;;;;;;;;;4.30;99.90;;;;;;5091750;28;19904;-86
2021/03/06 05:05:47;;;;;;;;;;;4.20;99.90;;;;;;5082889;28;19908;-86
2021/03/06 05:08:13;;;;;;;;;;;4.20;99.90;;;;;;5083760;28;19999;-85
2021/03/06 05:10:38;;;;;;;;;;;4.20;99.90;;;;;;5082694;28;20261;-85
2021/03/06 05:13:04;;;;;;;;;;;4.10;99.90;;;;;;5078576;28;19916;-85
2021/03/06 05:15:29;;;;;;;;;;;4.10;99.90;;;;;;5084143;28;19931;-85
2021/03/06 05:17:55;;;;;;;;;;;4.00;99.90;;;;;;5080128;28;19908;-85
2021/03/06 05:20:21;;;;;;;;;;;4.00;99.90;;;;;;5088232;28;19959;-85
2021/03/06 05:22:51;;;;;;;;;;;4.00;99.90;;;;;;5073781;28;19909;-85
2021/03/06 05:25:20;;;;;;;;;;;3.90;99.90;;;;;;5073829;28;20017;-86
2021/03/06 05:27:50;;;;;;;;;;;3.80;99.90;;;;;;5082391;28;19915;-85
2021/03/06 05:30:16;;;;;;;;;;;3.70;99.90;;;;;;5081952;28;19916;-85
2021/03/06 05:32:42;;;;;;;;;;;3.80;99.90;;;;;;5085143;28;19908;-85
2021/03/06 05:35:08;;;;;;;;;;;3.80;99.90;;;;;;5080738;28;19956;-85
2021/03/06 05:37:33;;;;;;;;;;;3.70;99.90;;;;;;5087497;28;19920;-85
2021/03/06 05:39:59;;;;;;;;;;;3.70;99.90;;;;;;5085686;28;19919;-85
2021/03/06 05:42:26;;;;;;;;;;;3.70;99.90;;;;;;5072983;28;19915;-85
2021/03/06 05:44:52;;;;;;;;;;;3.70;99.90;;;;;;5089174;28;19904;-86
2021/03/06 05:47:18;;;;;;;;;;;3.60;99.90;;;;;;5082707;28;20046;-86
2021/03/06 05:49:44;;;;;;;;;;;3.70;99.90;;;;;;5081013;28;19915;-86
2021/03/06 05:52:13;;;;;;;;;;;3.60;99.90;;;;;;5084461;28;20429;-85
2021/03/06 05:54:40;;;;;;;;;;;3.50;99.90;;;;;;5078517;28;19908;-85
2021/03/06 05:57:07;;;;;;;;;;;3.60;99.90;;;;;;5080901;28;20325;-85
2021/03/06 05:59:33;;;;;;;;;;;3.30;99.90;;;;;;5091067;28;19908;-85
2021/03/06 06:01:59;;;;;;;;;;;3.40;99.90;;;;;;5077389;28;19957;-84
2021/03/06 06:04:28;;;;;;;;;;;3.30;99.90;;;;;;5081707;28;19914;-86
2021/03/06 06:06:53;;;;;;;;;;;3.20;99.90;;;;;;5090155;28;20012;-85
2021/03/06 06:09:20;;;;;;;;;;;3.30;99.90;;;;;;5089261;28;19998;-86
2021/03/06 06:11:46;;;;;;;;;;;3.20;99.90;;;;;;5083646;28;19912;-86
2021/03/06 06:14:13;;;;;;;;;;;3.20;99.90;;;;;;5089970;28;20007;-86
2021/03/06 06:16:39;;;;;;;;;;;3.30;99.90;;;;;;5079265;28;19916;-86
2021/03/06 06:19:04;;;;;;;;;;;3.30;99.90;;;;;;5076858;28;20159;-86
2021/03/06 06:21:48;;;;;;;;;;;3.20;99.90;;;;;;5072108;28;19918;-86
2021/03/06 06:24:15;;;;;;;;;;;3.20;99.90;;;;;;5077608;28;19920;-86
2021/03/06 06:26:51;;;;;;;;;;;3.20;99.90;;;;;;5080871;28;20710;-87
2021/03/06 06:29:18;;;;;;;;;;;3.10;99.90;;;;;;5079595;28;20303;-84
2021/03/06 06:31:52;;;;;;;;;;;3.20;99.90;;;;;;5072116;28;19999;-87
2021/03/06 06:34:20;;;;;;;;;;;3.30;99.90;;;;;;5073672;28;19915;-87
2021/03/06 06:36:46;;;;;;;;;;;3.30;99.90;;;;;;5078409;28;19923;-87
2021/03/06 06:39:11;;;;;;;;;;;3.30;99.90;;;;;;5082181;28;19977;-87
2021/03/06 06:41:47;;;;;;;;;;;3.40;99.90;;;;;;5084280;28;19919;-87
2021/03/06 06:44:12;;;;;;;;;;;3.60;99.90;;;;;;5082859;28;20319;-87
2021/03/06 06:46:38;;;;;;;;;;;3.70;99.90;;;;;;5077289;28;19912;-88
2021/03/06 06:49:03;;;;;;;;;;;4.00;99.90;;;;;;5080649;28;19930;-87
2021/03/06 06:51:29;;;;;;;;;;;4.00;99.90;;;;;;5084292;28;19908;-88
2021/03/06 06:54:11;;;;;;;;;;;4.20;99.90;;;;;;5087013;28;19912;-88
2021/03/06 06:56:36;;;;;;;;;;;4.30;99.90;;;;;;5071646;28;19916;-87
2021/03/06 06:59:03;;;;;;;;;;;4.50;99.90;;;;;;5084201;28;19931;-87
2021/03/06 07:01:30;;;;;;;;;;;4.70;99.90;;;;;;5090111;28;19931;-87
2021/03/06 07:04:06;;;;;;;;;;;5.00;99.90;;;;;;5078220;28;19912;-87
2021/03/06 07:06:32;;;;;;;;;;;5.20;99.90;;;;;;5089435;28;19908;-87
2021/03/06 07:09:07;;;;;;;;;;;5.40;99.90;;;;;;5088093;28;20419;-87
2021/03/06 07:11:33;;;;;;;;;;;5.60;99.90;;;;;;5080126;28;19904;-88
2021/03/06 07:13:59;;;;;;;;;;;5.80;99.90;;;;;;5083870;28;20011;-86
2021/03/06 07:16:25;;;;;;;;;;;5.80;99.90;;;;;;5084419;28;20010;-89
2021/03/06 07:19:00;;;;;;;;;;;6.00;99.90;;;;;;5079481;28;19912;-90
2021/03/06 07:21:25;;;;;;;;;;;6.30;99.90;;;;;;5073644;28;19904;-89
2021/03/06 07:23:51;;;;;;;;;;;6.60;99.90;;;;;;5074940;28;19911;-90
2021/03/06 07:26:17;;;;;;;;;;;6.90;99.90;;;;;;5075226;28;19904;-89
2021/03/06 07:28:42;;;;;;;;;;;7.00;99.90;;;;;;5079061;28;19911;-90
2021/03/06 07:31:08;;;;;;;;;;;7.20;99.90;;;;;;5077904;28;19916;-89
2021/03/06 07:33:35;;;;;;;;;;;7.50;99.90;;;;;;5075830;28;19908;-90
2021/03/06 07:36:02;;;;;;;;;;;7.60;99.90;;;;;;5078102;28;19924;-90
2021/03/06 07:38:28;;;;;;;;;;;7.50;99.90;;;;;;5075551;28;19908;-88
2021/03/06 07:40:59;;;;;;;;;;;7.70;99.90;;;;;;5082449;28;19908;-87
2021/03/06 07:43:28;;;;;;;;;;;7.80;99.90;;;;;;5081009;28;19911;-90
2021/03/06 07:45:56;;;;;;;;;;;7.70;99.90;;;;;;5079424;28;19931;-91
2021/03/06 07:48:25;;;;;;;;;;;8.10;99.90;;;;;;5083229;28;19916;-91
2021/03/06 07:50:52;;;;;;;;;;;8.40;99.90;;;;;;5093802;28;19912;-90
2021/03/06 07:53:18;;;;;;;;;;;8.40;99.90;;;;;;5091566;28;20423;-91
2021/03/06 07:55:45;;;;;;;;;;;9.00;99.90;;;;;;5077644;28;19916;-90
2021/03/06 07:58:14;;;;;;;;;;;9.10;99.90;;;;;;5079810;28;20612;-90
2021/03/06 08:00:41;;;;;;;;;;;9.10;99.90;;;;;;5080902;28;20341;-89
2021/03/06 08:03:23;;;;;;;;;;;9.10;99.90;;;;;;5082204;28;19908;-90
2021/03/06 08:05:49;;;;;;;;;;;9.10;99.90;;;;;;5080037;28;19920;-90
2021/03/06 08:08:36;;;;;;;;;;;9.80;99.90;;;;;;5081989;28;19908;-90
2021/03/06 08:11:05;;;;;;;;;;;10.20;99.90;;;;;;5022398;28;19936;-89
2021/03/06 08:13:35;;;;;;;;;;;9.90;99.90;;;;;;5040982;28;20010;-89
2021/03/06 08:16:19;;;;;;;;;;;10.10;99.90;;;;;;5039371;28;20027;-90
2021/03/06 08:18:45;;;;;;;;;;;10.00;99.90;;;;;;5033033;28;20725;-90
2021/03/06 08:21:29;;;;;;;;;;;10.20;99.90;;;;;;5049872;28;19995;-90
2021/03/06 08:24:13;;;;;;;;;;;10.60;99.90;;;;;;5031369;28;19963;-90
2021/03/06 08:26:40;;;;;;;;;;;10.90;99.90;;;;;;5033622;28;19939;-90
2021/03/06 08:29:24;;;;;;;;;;;10.50;99.90;;;;;;5033116;28;19924;-90
2021/03/06 08:31:55;;;;;;;;;;;10.40;99.90;;;;;;5032843;28;19923;-89
2021/03/06 08:34:28;;;;;;;;;;;11.10;99.90;;;;;;5044745;28;19905;-91
2021/03/06 08:37:20;;;;;;;;;;;12.10;99.90;;;;;;5034369;28;20061;-90
2021/03/06 08:40:04;;;;;;;;;;;11.40;99.90;;;;;;5033086;28;20339;-90
2021/03/06 08:42:37;;;;;;;;;;;12.40;99.90;;;;;;5034659;28;20032;-90
2021/03/06 08:45:04;;;;;;;;;;;12.30;99.90;;;;;;5051590;28;19905;-91
2021/03/06 08:47:31;;;;;;;;;;;12.70;99.90;;;;;;5055618;28;20383;-90
2021/03/06 08:50:05;;;;;;;;;;;12.50;99.90;;;;;;5065456;28;19908;-88
2021/03/06 08:52:31;;;;;;;;;;;12.90;99.90;;;;;;5054845;28;19957;-92
2021/03/06 08:54:57;;;;;;;;;;;13.10;99.90;;;;;;5056135;28;19991;-90
2021/03/06 08:57:34;;;;;;;;;;;13.60;99.90;;;;;;5055585;28;20364;-91
2021/03/06 09:00:02;;;;;;;;;;;13.10;99.90;;;;;;5059536;28;19908;-92
2021/03/06 09:02:28;;;;;;;;;;;13.30;99.90;;;;;;5057083;28;19916;-89
2021/03/06 09:05:01;;;;;;;;;;;13.60;99.90;;;;;;5054830;28;19916;-89
2021/03/06 09:07:32;;;;;;;;;;;13.80;99.90;;;;;;5055755;28;19999;-90
2021/03/06 09:10:12;;;;;;;;;;;14.60;99.90;;;;;;5058660;28;19912;-90
2021/03/06 09:12:39;;;;;;;;;;;14.60;99.90;;;;;;5057459;28;19933;-92
2021/03/06 09:15:05;;;;;;;;;;;14.30;99.90;;;;;;5059517;28;19916;-93
2021/03/06 09:17:31;;;;;;;;;;;14.30;99.90;;;;;;5062125;28;19912;-91
2021/03/06 09:20:01;;;;;;;;;;;14.70;99.90;;;;;;5053775;28;19905;-92
2021/03/06 09:22:26;;;;;;;;;;;15.40;99.90;;;;;;5057751;28;19919;-92
2021/03/06 09:24:52;;;;;;;;;;;16.10;99.90;;;;;;5060626;28;19913;-93
2021/03/06 09:27:18;;;;;;;;;;;16.80;99.90;;;;;;5056004;28;19939;-92
2021/03/06 09:29:50;;;;;;;;;;;15.80;99.90;;;;;;5061579;28;19999;-94
2021/03/06 09:32:18;;;;;;;;;;;17.20;99.90;;;;;;5083629;28;20372;-92
2021/03/06 09:34:46;;;;;;;;;;;17.80;99.90;;;;;;5086260;28;19918;-92
2021/03/06 09:37:15;;;;;;;;;;;16.20;99.90;;;;;;5078573;28;20386;-92
2021/03/06 09:39:41;;;;;;;;;;;17.90;99.90;;;;;;5087507;28;19908;-91
2021/03/06 09:42:08;;;;;;;;;;;19.60;99.90;;;;;;5084156;28;19908;-90
2021/03/06 09:44:35;;;;;;;;;;;18.50;99.90;;;;;;5077615;28;19988;-91
2021/03/06 09:47:02;;;;;;;;;;;20.30;99.90;;;;;;5076043;28;19908;-89
2021/03/06 09:49:37;;;;;;;;;;;18.10;99.90;;;;;;5075453;28;20387;-91
2021/03/06 09:52:14;;;;;;;;;;;17.70;99.90;;;;;;5095167;28;19907;-91
2021/03/06 09:54:55;;;;;;;;;;;15.70;99.90;;;;;;5091351;28;19916;-89
2021/03/06 09:57:25;;;;;;;;;;;18.60;99.90;;;;;;5087967;28;19912;-90
2021/03/06 09:59:51;;;;;;;;;;;19.50;99.90;;;;;;5087153;28;19998;-89
2021/03/06 10:02:25;;;;;;;;;;;20.80;99.90;;;;;;5078395;28;19908;-89
2021/03/06 10:04:51;;;;;;;;;;;20.30;99.90;;;;;;5073310;28;20605;-89
2021/03/06 10:07:23;;;;;;;;;;;22.00;99.80;;;;;;5072860;28;19909;-89
2021/03/06 10:09:51;;;;;;;;;;;18.10;99.90;;;;;;5072513;28;20006;-90
2021/03/06 10:12:18;;;;;;;;;;;17.50;99.90;;;;;;5080854;28;20348;-90
2021/03/06 10:14:51;;;;;;;;;;;19.70;99.90;;;;;;5078002;28;20387;-89
2021/03/06 10:17:27;;;;;;;;;;;20.50;99.90;;;;;;5078017;28;19961;-91
2021/03/06 10:19:54;;;;;;;;;;;20.20;99.90;;;;;;5071664;28;20342;-90
2021/03/06 10:22:22;;;;;;;;;;;21.10;99.00;;;;;;5076713;28;19919;-89
2021/03/06 10:24:58;;;;;;;;;;;22.20;99.90;;;;;;5070274;28;19909;-90
2021/03/06 10:27:45;;;;;;;;;;;22.60;99.60;;;;;;5075566;28;19912;-89
2021/03/06 10:30:14;;;;;;;;;;;23.60;98.70;;;;;;5078073;28;19920;-90
2021/03/06 10:32:44;;;;;;;;;;;21.90;97.20;;;;;;5080064;28;20041;-89
2021/03/06 10:35:51;;;;;;;;;;;24.70;95.90;;;;;;5081477;28;19916;-89
2021/03/06 10:38:29;;;;;;;;;;;21.50;98.60;;;;;;5019865;28;19928;-89
2021/03/06 10:41:01;;;;;;;;;;;20.20;97.70;;;;;;5022106;28;19924;-89
2021/03/06 10:43:40;;;;;;;;;;;20.50;98.20;;;;;;5010813;28;20388;-90
2021/03/06 10:46:09;;;;;;;;;;;23.00;95.70;;;;;;5027988;28;19971;-89
2021/03/06 10:48:34;;;;;;;;;;;24.50;96.10;;;;;;5010819;28;19957;-88
2021/03/06 10:51:03;;;;;;;;;;;18.80;97.50;;;;;;5009909;28;19913;-90
2021/03/06 10:53:31;;;;;;;;;;;19.20;99.60;;;;;;5026483;28;19913;-91
2021/03/06 10:55:57;;;;;;;;;;;21.90;97.10;;;;;;5030575;28;20027;-92
2021/03/06 10:58:46;;;;;;;;;;;22.60;95.00;;;;;;5010290;28;19927;-88
2021/03/06 11:01:17;;;;;;;;;;;19.40;99.30;;;;;;5024723;28;19905;-90
2021/03/06 11:03:48;;;;;;;;;;;21.70;97.30;;;;;;5026396;28;20261;-89
2021/03/06 11:06:18;;;;;;;;;;;21.10;95.70;;;;;;5002246;28;19924;-88
2021/03/06 11:09:04;;;;;;;;;;;22.70;96.00;;;;;;5038484;28;19916;-89
2021/03/06 11:11:31;;;;;;;;;;;23.30;94.40;;;;;;5070538;28;19916;-90
2021/03/06 11:13:58;;;;;;;;;;;20.70;95.60;;;;;;5075754;28;19942;-89
2021/03/06 11:16:38;;;;;;;;;;;22.50;97.10;;;;;;5077453;28;20560;-89
2021/03/06 11:19:10;;;;;;;;;;;22.20;96.10;;;;;;5075712;28;20017;-88
2021/03/06 11:21:37;;;;;;;;;;;23.70;94.40;;;;;;5074662;28;19918;-89
2021/03/06 11:24:09;;;;;;;;;;;23.30;93.90;;;;;;5080263;28;19916;-88
2021/03/06 11:26:46;;;;;;;;;;;21.90;94.20;;;;;;5074877;28;19911;-89
2021/03/06 11:29:14;;;;;;;;;;;23.60;94.10;;;;;;5078556;28;19908;-87
2021/03/06 11:31:43;;;;;;;;;;;24.10;92.40;;;;;;5076516;28;20006;-90
2021/03/06 11:34:09;;;;;;;;;;;23.20;94.40;;;;;;5074457;28;19919;-87
2021/03/06 11:36:40;;;;;;;;;;;23.20;93.20;;;;;;5073691;28;20093;-88
2021/03/06 11:39:07;;;;;;;;;;;23.00;92.80;;;;;;5078716;28;19912;-86
2021/03/06 11:41:36;;;;;;;;;;;20.90;95.90;;;;;;5080757;28;19923;-85
2021/03/06 11:44:02;;;;;;;;;;;23.30;94.20;;;;;;5074835;28;19915;-87
2021/03/06 11:46:33;;;;;;;;;;;22.60;96.90;;;;;;5078481;28;19952;-88
2021/03/06 11:48:58;;;;;;;;;;;20.30;95.90;;;;;;5073735;28;19940;-87
2021/03/06 11:51:25;;;;;;;;;;;21.10;94.10;;;;;;5074337;28;19939;-87
2021/03/06 11:53:51;;;;;;;;;;;15.40;99.90;;;;;;5079882;28;19916;-88
2021/03/06 11:56:19;;;;;;;;;;;14.10;99.90;;;;;;5078960;28;19915;-87
2021/03/06 11:58:47;;;;;;;;;;;14.70;99.90;;;;;;5079478;28;19934;-87
2021/03/06 12:01:13;;;;;;;;;;;13.40;99.90;;;;;;5077686;28;20364;-88
2021/03/06 12:03:39;;;;;;;;;;;13.60;99.90;;;;;;5074985;28;20279;-87
2021/03/06 12:06:11;;;;;;;;;;;14.70;99.90;;;;;;5069541;28;20654;-88
2021/03/06 12:08:37;;;;;;;;;;;15.20;99.90;;;;;;5076038;28;20287;-88
2021/03/06 12:11:03;;;;;;;;;;;13.70;99.90;;;;;;5071951;28;19923;-89
2021/03/06 12:13:33;;;;;;;;;;;13.70;99.90;;;;;;5073775;28;19913;-88
2021/03/06 12:16:14;;;;;;;;;;;15.30;99.90;;;;;;5069061;28;20739;-87
2021/03/06 12:18:41;;;;;;;;;;;15.50;99.90;;;;;;5072776;28;19947;-87
2021/03/06 12:21:09;;;;;;;;;;;15.00;99.90;;;;;;5069328;28;19916;-87
2021/03/06 12:23:35;;;;;;;;;;;15.80;99.90;;;;;;5071142;28;19981;-86
2021/03/06 12:26:03;;;;;;;;;;;15.70;99.90;;;;;;5075919;28;19911;-87
2021/03/06 12:28:29;;;;;;;;;;;15.10;99.90;;;;;;5071848;28;19962;-87
2021/03/06 12:30:56;;;;;;;;;;;14.60;99.90;;;;;;5072399;28;19989;-86
2021/03/06 12:33:22;;;;;;;;;;;14.40;99.90;;;;;;5072659;28;20022;-87
2021/03/06 12:35:50;;;;;;;;;;;14.60;99.90;;;;;;5076439;28;20011;-87
2021/03/06 12:38:16;;;;;;;;;;;15.10;99.90;;;;;;5071143;28;20003;-87
2021/03/06 12:40:42;;;;;;;;;;;14.60;99.90;;;;;;5074119;28;20061;-87
2021/03/06 12:43:14;;;;;;;;;;;14.90;99.90;;;;;;5072128;28;19916;-87
2021/03/06 12:45:41;;;;;;;;;;;15.00;99.90;;;;;;5072313;28;20387;-87
2021/03/06 12:48:07;;;;;;;;;;;14.50;99.90;;;;;;5075426;28;19908;-87
2021/03/06 12:50:36;;;;;;;;;;;14.50;99.90;;;;;;5079273;28;20459;-87
2021/03/06 12:53:02;;;;;;;;;;;14.10;99.90;;;;;;5078362;28;20388;-87
2021/03/06 12:55:28;;;;;;;;;;;13.60;99.90;;;;;;5077197;28;19919;-87
2021/03/06 12:57:55;;;;;;;;;;;13.70;99.90;;;;;;5073466;28;19919;-87
2021/03/06 13:00:22;;;;;;;;;;;14.00;99.90;;;;;;5068305;28;20394;-88
2021/03/06 13:02:51;;;;;;;;;;;14.40;99.90;;;;;;5077308;28;19962;-87
2021/03/06 13:05:24;;;;;;;;;;;14.90;99.90;;;;;;5070090;28;19946;-87
2021/03/06 13:07:56;;;;;;;;;;;14.60;99.90;;;;;;5075970;28;19951;-87
2021/03/06 13:10:26;;;;;;;;;;;14.20;99.90;;;;;;5072770;28;19909;-87
2021/03/06 13:12:52;;;;;;;;;;;14.20;99.90;;;;;;5077660;28;19911;-87
2021/03/06 13:15:19;;;;;;;;;;;14.10;99.90;;;;;;5073590;28;20445;-88
2021/03/06 13:17:45;;;;;;;;;;;13.90;99.90;;;;;;5074922;28;19920;-87
2021/03/06 13:20:19;;;;;;;;;;;13.90;99.90;;;;;;5075726;28;19916;-87
2021/03/06 13:22:46;;;;;;;;;;;13.60;99.90;;;;;;5075217;28;20325;-87
2021/03/06 13:25:12;;;;;;;;;;;13.50;99.90;;;;;;5076319;28;19915;-87
2021/03/06 13:27:39;;;;;;;;;;;13.30;99.90;;;;;;5076995;28;19909;-87
2021/03/06 13:30:09;;;;;;;;;;;13.30;99.90;;;;;;5074190;28;20003;-87
2021/03/06 13:32:36;;;;;;;;;;;13.80;99.90;;;;;;5074929;28;19924;-88
2021/03/06 13:35:04;;;;;;;;;;;14.20;99.90;;;;;;5077981;28;19981;-88
2021/03/06 13:37:34;;;;;;;;;;;14.40;99.90;;;;;;5076167;28;19962;-89
2021/03/06 13:40:00;;;;;;;;;;;14.60;99.90;;;;;;5075423;28;19916;-88
2021/03/06 13:42:26;;;;;;;;;;;14.90;99.90;;;;;;5073786;28;19951;-88
2021/03/06 13:44:52;;;;;;;;;;;14.90;99.90;;;;;;5076510;28;19947;-90
2021/03/06 13:47:17;;;;;;;;;;;14.30;99.90;;;;;;5075359;28;19926;-88
2021/03/06 13:49:43;;;;;;;;;;;14.50;99.90;;;;;;5075343;28;19912;-88
2021/03/06 13:52:09;;;;;;;;;;;14.70;99.90;;;;;;5073595;28;19912;-88
2021/03/06 13:54:34;;;;;;;;;;;14.80;99.90;;;;;;5074621;28;19912;-88
2021/03/06 13:57:00;;;;;;;;;;;15.00;99.90;;;;;;5074277;28;19912;-88
2021/03/06 13:59:26;;;;;;;;;;;15.10;99.90;;;;;;5073758;28;19912;-88
2021/03/06 14:01:52;;;;;;;;;;;15.10;99.90;;;;;;5077092;28;19916;-87
2021/03/06 14:04:17;;;;;;;;;;;15.10;99.90;;;;;;5077417;28;19999;-88
2021/03/06 14:06:44;;;;;;;;;;;14.40;99.90;;;;;;5074773;28;19908;-88
2021/03/06 14:09:10;;;;;;;;;;;13.80;99.90;;;;;;5075097;28;20045;-90
2021/03/06 14:11:36;;;;;;;;;;;13.50;99.90;;;;;;5075873;28;19908;-89
2021/03/06 14:14:02;;;;;;;;;;;13.50;99.90;;;;;;5074690;28;20288;-88
2021/03/06 14:16:28;;;;;;;;;;;13.90;99.90;;;;;;5073373;28;19912;-89
2021/03/06 14:18:53;;;;;;;;;;;14.30;99.90;;;;;;5078304;28;20283;-89
2021/03/06 14:21:20;;;;;;;;;;;14.20;99.90;;;;;;5075192;28;19912;-89
2021/03/06 14:23:52;;;;;;;;;;;14.30;99.90;;;;;;5073801;28;19920;-88
2021/03/06 14:26:21;;;;;;;;;;;13.90;99.90;;;;;;5074491;28;20020;-89
2021/03/06 14:28:47;;;;;;;;;;;14.70;99.90;;;;;;5078939;28;19914;-88
2021/03/06 14:31:13;;;;;;;;;;;14.40;99.90;;;;;;5080042;28;19919;-88